Time,TemperatureF,DewpointF,PressureIn,WindDirection,WindDirectionDegrees,WindSpeedMPH,WindSpeedGustMPH,Humidity,HourlyPrecipIn,Conditions,Clouds,dailyrainin,SolarRadiationWatts/m^2,SoftwareType,DateUTC
2013-07-24 00:01:00,63.0,63.0,-100.00,NNE,16,2.0,5.0,100,0.00,,,0.06,0.000000,,2013-07-24 04:01:00,
2013-07-24 00:43:00,63.0,63.0,-100.00,NNE,33,3.0,6.0,100,0.00,,,0.06,0.000000,,2013-07-24 04:43:00,
2013-07-24 00:53:00,63.0,63.0,-100.00,NNE,33,3.0,6.0,100,0.00,,,0.06,0.000000,,2013-07-24 04:53:00,
2013-07-24 01:02:00,63.0,63.0,-100.00,NNE,33,3.0,6.0,100,0.00,,,0.06,0.000000,,2013-07-24 05:02:00,
2013-07-24 01:33:00,64.0,64.0,-100.00,WNW,298,2.0,5.0,100,0.00,,,0.06,0.000000,,2013-07-24 05:33:00,
2013-07-24 01:43:00,64.0,64.0,-100.00,WNW,298,2.0,5.0,100,0.00,,,0.06,0.000000,,2013-07-24 05:43:00,
2013-07-24 01:52:00,64.0,64.0,-100.00,WNW,298,2.0,5.0,100,0.00,,,0.06,0.000000,,2013-07-24 05:52:00,
2013-07-24 02:01:00,64.0,64.0,-100.00,WNW,298,2.0,5.0,100,0.00,,,0.06,0.000000,,2013-07-24 06:01:00,
2013-07-24 02:43:00,64.0,64.0,-100.00,North,359,3.0,11.0,100,0.00,,,0.06,0.000000,,2013-07-24 06:43:00,
2013-07-24 02:53:00,64.0,64.0,-100.00,North,359,3.0,11.0,100,0.00,,,0.06,0.000000,,2013-07-24 06:53:00,
2013-07-24 03:02:00,64.0,64.0,-100.00,North,359,3.0,11.0,100,0.00,,,0.06,0.000000,,2013-07-24 07:02:00,
2013-07-24 03:32:00,64.0,64.0,-100.00,WNW,290,3.0,11.0,100,0.00,,,0.06,0.000000,,2013-07-24 07:32:00,
2013-07-24 03:43:00,64.0,64.0,-100.00,WNW,290,3.0,11.0,100,0.00,,,0.06,0.000000,,2013-07-24 07:43:00,
2013-07-24 03:53:00,64.0,64.0,-100.00,WNW,290,3.0,11.0,100,0.00,,,0.06,0.000000,,2013-07-24 07:53:00,
2013-07-24 04:02:00,64.0,64.0,-100.00,WNW,290,3.0,11.0,100,0.00,,,0.06,0.000000,,2013-07-24 08:02:00,
2013-07-24 04:32:00,64.0,64.0,-100.00,WSW,255,2.0,10.0,100,0.00,,,0.06,0.000000,,2013-07-24 08:32:00,
2013-07-24 04:43:00,64.0,64.0,-100.00,WSW,255,2.0,10.0,100,0.00,,,0.06,0.000000,,2013-07-24 08:43:00,
2013-07-24 04:52:00,64.0,64.0,-100.00,WSW,255,2.0,10.0,100,0.00,,,0.06,0.000000,,2013-07-24 08:52:00,
2013-07-24 05:02:00,64.0,64.0,-100.00,WSW,255,2.0,10.0,100,0.00,,,0.06,0.000000,,2013-07-24 09:02:00,
2013-07-24 05:43:00,64.0,64.0,-100.00,West,274,2.0,7.0,100,0.00,,,0.06,0.000000,,2013-07-24 09:43:00,
2013-07-24 05:53:00,64.0,64.0,-100.00,West,274,2.0,7.0,100,0.00,,,0.06,0.000000,,2013-07-24 09:53:00,
2013-07-24 06:02:00,64.0,64.0,-100.00,West,274,2.0,7.0,100,0.00,,,0.06,0.000000,,2013-07-24 10:02:00,
2013-07-24 06:43:00,63.0,63.0,-100.00,WNW,285,3.0,9.0,100,0.00,,,0.06,0.000000,,2013-07-24 10:43:00,
2013-07-24 06:53:00,63.0,63.0,-100.00,WNW,285,3.0,9.0,100,0.00,,,0.06,0.000000,,2013-07-24 10:53:00,
2013-07-24 07:02:00,63.0,63.0,-100.00,WNW,285,3.0,9.0,100,0.00,,,0.06,0.000000,,2013-07-24 11:02:00,
2013-07-24 07:32:00,63.0,63.0,-100.00,WNW,285,3.0,9.0,100,0.00,,,0.06,3.000000,,2013-07-24 11:32:00,
2013-07-24 07:44:00,63.0,63.0,-100.00,WNW,285,3.0,9.0,100,0.00,,,0.06,3.000000,,2013-07-24 11:44:00,
2013-07-24 07:52:00,63.0,63.0,-100.00,WNW,285,3.0,9.0,100,0.00,,,0.06,3.000000,,2013-07-24 11:52:00,
2013-07-24 08:02:00,63.0,63.0,-100.00,WNW,285,3.0,9.0,100,0.00,,,0.06,3.000000,,2013-07-24 12:02:00,
2013-07-24 08:42:00,64.0,64.0,-100.00,WSW,245,3.0,6.0,100,0.00,,,-99.99,53.000000,,2013-07-24 12:42:00,
2013-07-24 08:52:00,64.0,64.0,-100.00,WSW,245,3.0,6.0,100,0.00,,,-99.99,53.000000,,2013-07-24 12:52:00,
2013-07-24 09:02:00,64.0,64.0,-100.00,WSW,245,3.0,6.0,100,0.00,,,-99.99,53.000000,,2013-07-24 13:02:00,
2013-07-24 09:43:00,65.0,65.0,-100.00,WNW,299,2.0,7.0,100,0.00,,,0.06,103.000000,,2013-07-24 13:43:00,
2013-07-24 09:53:00,65.0,65.0,-100.00,WNW,299,2.0,7.0,100,0.00,,,0.06,103.000000,,2013-07-24 13:53:00,
2013-07-24 10:02:00,65.0,65.0,-100.00,WNW,299,2.0,7.0,100,0.00,,,0.06,103.000000,,2013-07-24 14:02:00,
2013-07-24 10:32:00,72.0,69.0,-100.00,North,4,3.0,6.0,91,0.00,,,0.06,380.000000,,2013-07-24 14:32:00,
2013-07-24 10:43:00,72.0,69.0,-100.00,North,4,3.0,6.0,91,0.00,,,0.06,380.000000,,2013-07-24 14:43:00,
2013-07-24 10:55:00,72.0,69.0,-100.00,North,4,3.0,6.0,91,0.00,,,0.06,380.000000,,2013-07-24 14:55:00,
2013-07-24 11:02:00,72.0,69.0,-100.00,North,4,3.0,6.0,91,0.00,,,0.06,380.000000,,2013-07-24 15:02:00,
2013-07-24 11:33:00,75.0,67.0,-100.00,NW,324,2.0,8.0,77,0.00,,,0.06,624.000000,,2013-07-24 15:33:00,
2013-07-24 11:43:00,75.0,67.0,-100.00,NW,324,2.0,8.0,77,0.00,,,0.06,624.000000,,2013-07-24 15:43:00,
2013-07-24 11:53:00,75.0,67.0,-100.00,NW,324,2.0,8.0,77,0.00,,,0.06,624.000000,,2013-07-24 15:53:00,
2013-07-24 12:02:00,75.0,67.0,-100.00,NW,324,2.0,8.0,77,0.00,,,0.06,624.000000,,2013-07-24 16:02:00,
2013-07-24 12:33:00,78.0,69.0,-100.00,West,281,3.0,7.0,73,0.00,,,0.06,641.000000,,2013-07-24 16:33:00,
2013-07-24 12:43:00,78.0,69.0,-100.00,West,281,3.0,7.0,73,0.00,,,0.06,641.000000,,2013-07-24 16:43:00,
2013-07-24 12:53:00,78.0,69.0,-100.00,West,281,3.0,7.0,73,0.00,,,0.06,641.000000,,2013-07-24 16:53:00,
2013-07-24 13:02:00,78.0,69.0,-100.00,West,281,3.0,7.0,73,0.00,,,0.06,641.000000,,2013-07-24 17:02:00,
2013-07-24 13:33:00,78.0,69.0,-100.00,West,272,2.0,7.0,74,0.00,,,0.06,733.000000,,2013-07-24 17:33:00,
2013-07-24 13:43:00,78.0,69.0,-100.00,West,272,2.0,7.0,74,0.00,,,0.06,733.000000,,2013-07-24 17:43:00,
2013-07-24 13:53:00,78.0,69.0,-100.00,West,272,2.0,7.0,74,0.00,,,0.06,733.000000,,2013-07-24 17:53:00,
2013-07-24 14:02:00,78.0,69.0,-100.00,West,272,2.0,7.0,74,0.00,,,0.06,733.000000,,2013-07-24 18:02:00,
2013-07-24 14:33:00,79.0,67.0,-100.00,WSW,249,3.0,7.0,66,0.00,,,0.06,752.000000,,2013-07-24 18:33:00,
2013-07-24 14:43:00,79.0,67.0,-100.00,WSW,249,3.0,7.0,66,0.00,,,0.06,752.000000,,2013-07-24 18:43:00,
2013-07-24 14:52:00,79.0,67.0,-100.00,WSW,249,3.0,7.0,66,0.00,,,0.06,752.000000,,2013-07-24 18:52:00,
2013-07-24 15:02:00,79.0,67.0,-100.00,WSW,249,3.0,7.0,66,0.00,,,0.06,752.000000,,2013-07-24 19:02:00,
2013-07-24 15:43:00,78.0,69.0,-100.00,WSW,249,3.0,10.0,73,0.00,,,0.06,722.000000,,2013-07-24 19:43:00,
2013-07-24 15:53:00,78.0,69.0,-100.00,WSW,249,3.0,10.0,73,0.00,,,0.06,722.000000,,2013-07-24 19:53:00,
2013-07-24 16:02:00,78.0,69.0,-100.00,WSW,249,3.0,10.0,73,0.00,,,0.06,722.000000,,2013-07-24 20:02:00,
2013-07-24 16:33:00,80.0,68.0,-100.00,WSW,240,3.0,7.0,67,0.00,,,0.06,886.000000,,2013-07-24 20:33:00,
2013-07-24 16:43:00,80.0,68.0,-100.00,WSW,240,3.0,7.0,67,0.00,,,0.06,886.000000,,2013-07-24 20:43:00,
2013-07-24 16:53:00,80.0,68.0,-100.00,WSW,240,3.0,7.0,67,0.00,,,0.06,886.000000,,2013-07-24 20:53:00,
2013-07-24 17:03:00,80.0,68.0,-100.00,WSW,240,3.0,7.0,67,0.00,,,0.06,886.000000,,2013-07-24 21:03:00,
2013-07-24 17:44:00,71.0,63.0,-100.00,SE,145,4.0,11.0,75,0.00,,,0.00,472.000000,,2013-07-24 21:44:00,
2013-07-24 17:53:00,71.0,63.0,-100.00,SE,145,4.0,11.0,75,0.00,,,0.00,472.000000,,2013-07-24 21:53:00,
2013-07-24 18:02:00,71.0,63.0,-100.00,SE,145,4.0,11.0,75,0.00,,,0.00,472.000000,,2013-07-24 22:02:00,
2013-07-24 18:43:00,71.0,62.0,-100.00,SE,129,2.0,6.0,72,0.00,,,0.00,167.000000,,2013-07-24 22:43:00,
2013-07-24 18:53:00,71.0,62.0,-100.00,SE,129,2.0,6.0,72,0.00,,,0.00,167.000000,,2013-07-24 22:53:00,
2013-07-24 19:02:00,71.0,62.0,-100.00,SE,129,2.0,6.0,72,0.00,,,0.00,167.000000,,2013-07-24 23:02:00,
2013-07-24 19:33:00,72.0,63.0,-100.00,WSW,250,1.0,7.0,73,0.00,,,0.00,170.000000,,2013-07-24 23:33:00,
2013-07-24 19:43:00,72.0,63.0,-100.00,WSW,250,1.0,7.0,73,0.00,,,0.00,170.000000,,2013-07-24 23:43:00,
2013-07-24 19:52:00,72.0,63.0,-100.00,WSW,250,1.0,7.0,73,0.00,,,0.00,170.000000,,2013-07-24 23:52:00,
2013-07-24 20:02:00,72.0,63.0,-100.00,WSW,250,1.0,7.0,73,0.00,,,0.00,170.000000,,2013-07-25 00:02:00,
2013-07-24 20:33:00,68.0,63.0,-100.00,SW,228,3.0,7.0,84,0.00,,,0.00,62.000000,,2013-07-25 00:33:00,
2013-07-24 20:43:00,68.0,63.0,-100.00,SW,228,3.0,7.0,84,0.00,,,0.00,62.000000,,2013-07-25 00:43:00,
2013-07-24 20:53:00,68.0,63.0,-100.00,SW,228,3.0,7.0,84,0.00,,,0.00,62.000000,,2013-07-25 00:53:00,
2013-07-24 21:03:00,68.0,63.0,-100.00,SW,228,3.0,7.0,84,0.00,,,0.00,62.000000,,2013-07-25 01:03:00,
2013-07-24 21:43:00,64.0,61.0,-100.00,NE,44,2.0,5.0,91,0.00,,,0.00,10.000000,,2013-07-25 01:43:00,
2013-07-24 21:53:00,64.0,61.0,-100.00,NE,44,2.0,5.0,91,0.00,,,0.00,10.000000,,2013-07-25 01:53:00,
2013-07-24 22:02:00,64.0,61.0,-100.00,NE,44,2.0,5.0,91,0.00,,,0.00,10.000000,,2013-07-25 02:02:00,
2013-07-24 22:43:00,61.0,60.0,-100.00,NE,42,3.0,5.0,96,0.00,,,0.00,0.000000,,2013-07-25 02:43:00,
2013-07-24 22:53:00,61.0,60.0,-100.00,NE,42,3.0,5.0,96,0.00,,,0.00,0.000000,,2013-07-25 02:53:00,
2013-07-24 23:02:00,61.0,60.0,-100.00,NE,42,3.0,5.0,96,0.00,,,0.00,0.000000,,2013-07-25 03:02:00,
2013-07-24 23:45:00,62.0,61.0,-100.00,NNE,23,2.0,5.0,98,0.00,,,0.00,0.000000,,2013-07-25 03:45:00,
2013-07-24 23:52:00,62.0,61.0,-100.00,NNE,23,2.0,5.0,98,0.00,,,0.00,0.000000,,2013-07-25 03:52:00,